sensor_id;sensor_type;location;lat;lon;timestamp;P1;durP1;ratioP1;P2;durP2;ratioP2
66972;SDS011;53902;51.466;-2.586;2023-04-06T00:00:16;10.77;;;7.18;;
66972;SDS011;53902;51.466;-2.586;2023-04-06T00:02:42;10.52;;;6.97;;
66972;SDS011;53902;51.466;-2.586;2023-04-06T00:05:10;13.73;;;7.70;;
66972;SDS011;53902;51.466;-2.586;2023-04-06T00:07:36;11.38;;;7.20;;
66972;SDS011;53902;51.466;-2.586;2023-04-06T00:10:02;14.73;;;7.97;;
66972;SDS011;53902;51.466;-2.586;2023-04-06T00:12:28;12.48;;;8.20;;
66972;SDS011;53902;51.466;-2.586;2023-04-06T00:14:54;12.93;;;8.77;;
66972;SDS011;53902;51.466;-2.586;2023-04-06T00:17:20;16.40;;;9.55;;
66972;SDS011;53902;51.466;-2.586;2023-04-06T00:19:45;18.80;;;9.88;;
66972;SDS011;53902;51.466;-2.586;2023-04-06T00:22:11;14.20;;;8.57;;
66972;SDS011;53902;51.466;-2.586;2023-04-06T00:24:36;13.93;;;6.75;;
66972;SDS011;53902;51.466;-2.586;2023-04-06T00:27:02;12.20;;;7.10;;
66972;SDS011;53902;51.466;-2.586;2023-04-06T00:29:28;11.23;;;6.95;;
66972;SDS011;53902;51.466;-2.586;2023-04-06T00:31:53;8.52;;;6.25;;
66972;SDS011;53902;51.466;-2.586;2023-04-06T00:34:19;12.27;;;7.28;;
66972;SDS011;53902;51.466;-2.586;2023-04-06T00:36:46;12.50;;;7.90;;
66972;SDS011;53902;51.466;-2.586;2023-04-06T00:39:12;11.77;;;7.70;;
66972;SDS011;53902;51.466;-2.586;2023-04-06T00:41:38;16.38;;;9.10;;
66972;SDS011;53902;51.466;-2.586;2023-04-06T00:44:04;11.13;;;7.40;;
66972;SDS011;53902;51.466;-2.586;2023-04-06T00:46:30;14.05;;;7.30;;
66972;SDS011;53902;51.466;-2.586;2023-04-06T00:48:56;12.75;;;7.60;;
66972;SDS011;53902;51.466;-2.586;2023-04-06T00:51:22;13.23;;;7.40;;
66972;SDS011;53902;51.466;-2.586;2023-04-06T00:53:48;9.93;;;7.15;;
66972;SDS011;53902;51.466;-2.586;2023-04-06T00:56:13;10.80;;;6.85;;
66972;SDS011;53902;51.466;-2.586;2023-04-06T00:58:39;14.93;;;7.05;;
66972;SDS011;53902;51.466;-2.586;2023-04-06T01:01:05;11.10;;;6.95;;
66972;SDS011;53902;51.466;-2.586;2023-04-06T01:03:31;11.45;;;6.72;;
66972;SDS011;53902;51.466;-2.586;2023-04-06T01:05:56;8.63;;;6.00;;
66972;SDS011;53902;51.466;-2.586;2023-04-06T01:08:23;8.68;;;6.15;;
66972;SDS011;53902;51.466;-2.586;2023-04-06T01:10:49;9.85;;;6.45;;
66972;SDS011;53902;51.466;-2.586;2023-04-06T01:13:15;9.85;;;6.18;;
66972;SDS011;53902;51.466;-2.586;2023-04-06T01:15:41;9.50;;;6.13;;
66972;SDS011;53902;51.466;-2.586;2023-04-06T01:18:10;7.82;;;5.88;;
66972;SDS011;53902;51.466;-2.586;2023-04-06T01:20:36;8.75;;;6.22;;
66972;SDS011;53902;51.466;-2.586;2023-04-06T01:23:02;13.30;;;5.72;;
66972;SDS011;53902;51.466;-2.586;2023-04-06T01:25:27;9.13;;;6.03;;
66972;SDS011;53902;51.466;-2.586;2023-04-06T01:27:53;10.30;;;5.70;;
66972;SDS011;53902;51.466;-2.586;2023-04-06T01:30:18;8.82;;;5.80;;
66972;SDS011;53902;51.466;-2.586;2023-04-06T01:32:44;7.47;;;5.45;;
66972;SDS011;53902;51.466;-2.586;2023-04-06T01:35:10;8.40;;;5.57;;
66972;SDS011;53902;51.466;-2.586;2023-04-06T01:37:36;7.32;;;4.90;;
66972;SDS011;53902;51.466;-2.586;2023-04-06T01:40:02;8.88;;;4.80;;
66972;SDS011;53902;51.466;-2.586;2023-04-06T01:42:27;6.10;;;4.40;;
66972;SDS011;53902;51.466;-2.586;2023-04-06T01:44:54;7.47;;;4.25;;
66972;SDS011;53902;51.466;-2.586;2023-04-06T01:47:20;7.63;;;4.30;;
66972;SDS011;53902;51.466;-2.586;2023-04-06T01:49:46;5.68;;;4.32;;
66972;SDS011;53902;51.466;-2.586;2023-04-06T01:52:11;7.20;;;3.55;;
66972;SDS011;53902;51.466;-2.586;2023-04-06T01:54:38;6.45;;;3.78;;
66972;SDS011;53902;51.466;-2.586;2023-04-06T01:57:06;4.85;;;3.70;;
66972;SDS011;53902;51.466;-2.586;2023-04-06T02:02:19;8.07;;;3.55;;
66972;SDS011;53902;51.466;-2.586;2023-04-06T02:04:44;5.75;;;3.47;;
66972;SDS011;53902;51.466;-2.586;2023-04-06T02:07:12;5.25;;;3.50;;
66972;SDS011;53902;51.466;-2.586;2023-04-06T02:09:38;6.20;;;3.50;;
66972;SDS011;53902;51.466;-2.586;2023-04-06T02:12:09;5.20;;;3.28;;
66972;SDS011;53902;51.466;-2.586;2023-04-06T02:14:35;3.72;;;2.97;;
66972;SDS011;53902;51.466;-2.586;2023-04-06T02:17:00;6.82;;;2.95;;
66972;SDS011;53902;51.466;-2.586;2023-04-06T02:19:26;5.18;;;2.70;;
66972;SDS011;53902;51.466;-2.586;2023-04-06T02:21:51;5.25;;;1.70;;
66972;SDS011;53902;51.466;-2.586;2023-04-06T02:24:17;2.85;;;1.30;;
66972;SDS011;53902;51.466;-2.586;2023-04-06T02:26:42;2.50;;;1.20;;
66972;SDS011;53902;51.466;-2.586;2023-04-06T02:29:08;3.38;;;1.13;;
66972;SDS011;53902;51.466;-2.586;2023-04-06T02:31:34;2.13;;;1.00;;
66972;SDS011;53902;51.466;-2.586;2023-04-06T02:34:00;1.20;;;0.70;;
66972;SDS011;53902;51.466;-2.586;2023-04-06T02:36:25;3.60;;;0.95;;
66972;SDS011;53902;51.466;-2.586;2023-04-06T02:38:51;2.85;;;0.82;;
66972;SDS011;53902;51.466;-2.586;2023-04-06T02:41:22;2.72;;;0.80;;
66972;SDS011;53902;51.466;-2.586;2023-04-06T02:43:49;2.03;;;0.80;;
66972;SDS011;53902;51.466;-2.586;2023-04-06T02:46:14;2.63;;;0.88;;
66972;SDS011;53902;51.466;-2.586;2023-04-06T02:48:40;1.90;;;0.70;;
66972;SDS011;53902;51.466;-2.586;2023-04-06T02:51:05;2.80;;;0.95;;
66972;SDS011;53902;51.466;-2.586;2023-04-06T02:53:31;1.88;;;0.80;;
66972;SDS011;53902;51.466;-2.586;2023-04-06T02:55:57;3.28;;;1.02;;
66972;SDS011;53902;51.466;-2.586;2023-04-06T02:58:22;4.68;;;1.55;;
66972;SDS011;53902;51.466;-2.586;2023-04-06T03:00:48;2.47;;;0.82;;
66972;SDS011;53902;51.466;-2.586;2023-04-06T03:03:14;2.05;;;0.77;;
66972;SDS011;53902;51.466;-2.586;2023-04-06T03:05:40;3.13;;;0.98;;
66972;SDS011;53902;51.466;-2.586;2023-04-06T03:08:08;1.38;;;0.70;;
66972;SDS011;53902;51.466;-2.586;2023-04-06T03:10:36;3.45;;;0.80;;
66972;SDS011;53902;51.466;-2.586;2023-04-06T03:13:02;2.95;;;0.65;;
66972;SDS011;53902;51.466;-2.586;2023-04-06T03:15:31;4.43;;;1.00;;
66972;SDS011;53902;51.466;-2.586;2023-04-06T03:17:57;3.42;;;0.70;;
66972;SDS011;53902;51.466;-2.586;2023-04-06T03:23:23;2.17;;;0.57;;
66972;SDS011;53902;51.466;-2.586;2023-04-06T03:25:49;2.10;;;0.63;;
66972;SDS011;53902;51.466;-2.586;2023-04-06T03:28:15;4.13;;;0.70;;
66972;SDS011;53902;51.466;-2.586;2023-04-06T03:30:43;2.08;;;0.60;;
66972;SDS011;53902;51.466;-2.586;2023-04-06T03:33:09;2.63;;;0.93;;
66972;SDS011;53902;51.466;-2.586;2023-04-06T03:35:35;3.03;;;0.75;;
66972;SDS011;53902;51.466;-2.586;2023-04-06T03:38:02;1.33;;;0.83;;
66972;SDS011;53902;51.466;-2.586;2023-04-06T03:40:28;9.65;;;1.17;;
66972;SDS011;53902;51.466;-2.586;2023-04-06T03:42:54;10.57;;;1.52;;
66972;SDS011;53902;51.466;-2.586;2023-04-06T03:45:19;9.68;;;1.85;;
66972;SDS011;53902;51.466;-2.586;2023-04-06T03:47:45;7.40;;;2.00;;
66972;SDS011;53902;51.466;-2.586;2023-04-06T03:53:30;13.77;;;3.05;;
66972;SDS011;53902;51.466;-2.586;2023-04-06T03:55:56;11.18;;;2.38;;
66972;SDS011;53902;51.466;-2.586;2023-04-06T03:58:21;16.80;;;2.38;;
66972;SDS011;53902;51.466;-2.586;2023-04-06T04:00:47;12.13;;;2.20;;
66972;SDS011;53902;51.466;-2.586;2023-04-06T04:03:12;11.07;;;2.17;;
66972;SDS011;53902;51.466;-2.586;2023-04-06T04:05:40;11.18;;;2.33;;
66972;SDS011;53902;51.466;-2.586;2023-04-06T04:08:06;11.52;;;2.10;;
66972;SDS011;53902;51.466;-2.586;2023-04-06T04:10:31;16.20;;;2.38;;
66972;SDS011;53902;51.466;-2.586;2023-04-06T04:12:57;12.80;;;2.13;;
66972;SDS011;53902;51.466;-2.586;2023-04-06T04:18:15;13.70;;;2.35;;
66972;SDS011;53902;51.466;-2.586;2023-04-06T04:31:03;9.43;;;1.95;;
66972;SDS011;53902;51.466;-2.586;2023-04-06T04:43:49;15.35;;;2.15;;
66972;SDS011;53902;51.466;-2.586;2023-04-06T04:46:17;21.02;;;3.35;;
66972;SDS011;53902;51.466;-2.586;2023-04-06T04:48:43;27.50;;;2.85;;
66972;SDS011;53902;51.466;-2.586;2023-04-06T04:51:19;21.48;;;3.53;;
66972;SDS011;53902;51.466;-2.586;2023-04-06T05:09:56;16.90;;;2.88;;
66972;SDS011;53902;51.466;-2.586;2023-04-06T05:12:26;19.52;;;2.65;;
66972;SDS011;53902;51.466;-2.586;2023-04-06T05:14:53;20.08;;;3.17;;
66972;SDS011;53902;51.466;-2.586;2023-04-06T05:17:18;17.77;;;3.13;;
66972;SDS011;53902;51.466;-2.586;2023-04-06T05:19:44;13.75;;;3.40;;
66972;SDS011;53902;51.466;-2.586;2023-04-06T05:22:10;17.85;;;2.95;;
66972;SDS011;53902;51.466;-2.586;2023-04-06T05:24:36;26.02;;;2.85;;
66972;SDS011;53902;51.466;-2.586;2023-04-06T05:27:02;20.00;;;3.47;;
66972;SDS011;53902;51.466;-2.586;2023-04-06T05:29:27;35.35;;;3.90;;
66972;SDS011;53902;51.466;-2.586;2023-04-06T05:31:53;27.10;;;4.05;;
66972;SDS011;53902;51.466;-2.586;2023-04-06T05:34:19;17.73;;;3.35;;
66972;SDS011;53902;51.466;-2.586;2023-04-06T05:36:45;19.95;;;3.25;;
66972;SDS011;53902;51.466;-2.586;2023-04-06T05:39:11;18.38;;;3.05;;
66972;SDS011;53902;51.466;-2.586;2023-04-06T05:41:37;20.95;;;3.35;;
66972;SDS011;53902;51.466;-2.586;2023-04-06T05:44:03;15.32;;;2.70;;
66972;SDS011;53902;51.466;-2.586;2023-04-06T05:46:28;16.95;;;4.10;;
66972;SDS011;53902;51.466;-2.586;2023-04-06T05:48:53;13.95;;;3.92;;
66972;SDS011;53902;51.466;-2.586;2023-04-06T05:51:19;11.95;;;3.20;;
66972;SDS011;53902;51.466;-2.586;2023-04-06T05:53:44;17.48;;;4.28;;
66972;SDS011;53902;51.466;-2.586;2023-04-06T05:56:11;24.87;;;5.20;;
66972;SDS011;53902;51.466;-2.586;2023-04-06T05:58:59;23.25;;;5.13;;
66972;SDS011;53902;51.466;-2.586;2023-04-06T06:01:28;17.67;;;5.13;;
66972;SDS011;53902;51.466;-2.586;2023-04-06T06:03:54;20.95;;;6.00;;
66972;SDS011;53902;51.466;-2.586;2023-04-06T06:06:19;18.13;;;5.38;;
66972;SDS011;53902;51.466;-2.586;2023-04-06T06:08:47;28.40;;;6.78;;
66972;SDS011;53902;51.466;-2.586;2023-04-06T06:11:13;23.83;;;6.63;;
66972;SDS011;53902;51.466;-2.586;2023-04-06T06:13:41;21.45;;;6.03;;
66972;SDS011;53902;51.466;-2.586;2023-04-06T06:16:07;18.70;;;5.68;;
66972;SDS011;53902;51.466;-2.586;2023-04-06T06:18:33;18.05;;;5.47;;
66972;SDS011;53902;51.466;-2.586;2023-04-06T06:20:59;20.88;;;5.07;;
66972;SDS011;53902;51.466;-2.586;2023-04-06T06:23:25;20.48;;;5.53;;
66972;SDS011;53902;51.466;-2.586;2023-04-06T06:25:55;17.25;;;4.90;;
66972;SDS011;53902;51.466;-2.586;2023-04-06T06:28:23;19.73;;;4.97;;
66972;SDS011;53902;51.466;-2.586;2023-04-06T06:30:51;15.43;;;4.88;;
66972;SDS011;53902;51.466;-2.586;2023-04-06T06:33:16;22.25;;;5.03;;
66972;SDS011;53902;51.466;-2.586;2023-04-06T06:35:42;19.17;;;5.13;;
66972;SDS011;53902;51.466;-2.586;2023-04-06T06:38:07;15.40;;;4.72;;
66972;SDS011;53902;51.466;-2.586;2023-04-06T06:40:40;16.75;;;5.75;;
66972;SDS011;53902;51.466;-2.586;2023-04-06T06:43:06;24.88;;;5.32;;
66972;SDS011;53902;51.466;-2.586;2023-04-06T06:45:32;15.60;;;5.05;;
66972;SDS011;53902;51.466;-2.586;2023-04-06T06:47:57;16.20;;;5.28;;
66972;SDS011;53902;51.466;-2.586;2023-04-06T06:50:23;23.25;;;5.32;;
66972;SDS011;53902;51.466;-2.586;2023-04-06T06:52:49;17.63;;;5.10;;
66972;SDS011;53902;51.466;-2.586;2023-04-06T06:55:14;12.88;;;5.30;;
66972;SDS011;53902;51.466;-2.586;2023-04-06T06:57:40;16.63;;;5.88;;
66972;SDS011;53902;51.466;-2.586;2023-04-06T07:00:07;19.45;;;5.68;;
66972;SDS011;53902;51.466;-2.586;2023-04-06T07:02:34;20.52;;;5.50;;
66972;SDS011;53902;51.466;-2.586;2023-04-06T07:07:39;18.42;;;5.53;;
66972;SDS011;53902;51.466;-2.586;2023-04-06T07:40:36;15.20;;;4.50;;
66972;SDS011;53902;51.466;-2.586;2023-04-06T07:48:54;17.52;;;3.90;;
66972;SDS011;53902;51.466;-2.586;2023-04-06T07:51:19;20.70;;;4.47;;
66972;SDS011;53902;51.466;-2.586;2023-04-06T07:53:48;10.00;;;4.95;;
66972;SDS011;53902;51.466;-2.586;2023-04-06T07:56:13;18.50;;;5.97;;
66972;SDS011;53902;51.466;-2.586;2023-04-06T07:58:40;12.25;;;5.85;;
66972;SDS011;53902;51.466;-2.586;2023-04-06T08:01:06;17.65;;;6.55;;
66972;SDS011;53902;51.466;-2.586;2023-04-06T08:03:33;13.63;;;7.47;;
66972;SDS011;53902;51.466;-2.586;2023-04-06T08:05:59;16.00;;;6.60;;
66972;SDS011;53902;51.466;-2.586;2023-04-06T08:08:25;16.15;;;6.25;;
66972;SDS011;53902;51.466;-2.586;2023-04-06T08:10:50;13.18;;;6.05;;
66972;SDS011;53902;51.466;-2.586;2023-04-06T08:13:16;16.75;;;6.13;;
66972;SDS011;53902;51.466;-2.586;2023-04-06T08:15:41;10.70;;;4.68;;
66972;SDS011;53902;51.466;-2.586;2023-04-06T08:18:08;15.15;;;4.13;;
66972;SDS011;53902;51.466;-2.586;2023-04-06T08:20:34;10.45;;;4.03;;
66972;SDS011;53902;51.466;-2.586;2023-04-06T08:22:59;9.45;;;3.33;;
66972;SDS011;53902;51.466;-2.586;2023-04-06T08:25:25;9.82;;;4.55;;
66972;SDS011;53902;51.466;-2.586;2023-04-06T08:27:51;8.65;;;3.40;;
66972;SDS011;53902;51.466;-2.586;2023-04-06T08:30:16;13.25;;;3.45;;
66972;SDS011;53902;51.466;-2.586;2023-04-06T08:35:09;12.57;;;3.77;;
66972;SDS011;53902;51.466;-2.586;2023-04-06T08:37:35;10.70;;;3.72;;
66972;SDS011;53902;51.466;-2.586;2023-04-06T08:40:00;17.02;;;4.05;;
66972;SDS011;53902;51.466;-2.586;2023-04-06T08:42:27;17.48;;;4.05;;
66972;SDS011;53902;51.466;-2.586;2023-04-06T08:44:54;11.38;;;3.60;;
66972;SDS011;53902;51.466;-2.586;2023-04-06T08:47:20;13.07;;;4.22;;
66972;SDS011;53902;51.466;-2.586;2023-04-06T08:49:46;8.80;;;3.75;;
66972;SDS011;53902;51.466;-2.586;2023-04-06T08:52:12;7.07;;;3.13;;
66972;SDS011;53902;51.466;-2.586;2023-04-06T08:54:38;15.00;;;3.80;;
66972;SDS011;53902;51.466;-2.586;2023-04-06T08:57:04;15.75;;;3.65;;
66972;SDS011;53902;51.466;-2.586;2023-04-06T08:59:31;7.88;;;2.60;;
66972;SDS011;53902;51.466;-2.586;2023-04-06T09:01:56;7.40;;;2.73;;
66972;SDS011;53902;51.466;-2.586;2023-04-06T09:07:45;9.30;;;2.42;;
66972;SDS011;53902;51.466;-2.586;2023-04-06T09:10:11;11.10;;;2.30;;
66972;SDS011;53902;51.466;-2.586;2023-04-06T09:12:36;13.15;;;2.60;;
66972;SDS011;53902;51.466;-2.586;2023-04-06T09:15:02;7.88;;;2.88;;
66972;SDS011;53902;51.466;-2.586;2023-04-06T09:17:28;7.15;;;2.33;;
66972;SDS011;53902;51.466;-2.586;2023-04-06T09:19:57;11.32;;;2.60;;
66972;SDS011;53902;51.466;-2.586;2023-04-06T09:22:23;11.00;;;2.25;;
66972;SDS011;53902;51.466;-2.586;2023-04-06T09:24:54;8.85;;;2.20;;
66972;SDS011;53902;51.466;-2.586;2023-04-06T09:27:29;6.18;;;1.67;;
66972;SDS011;53902;51.466;-2.586;2023-04-06T09:30:08;4.30;;;1.60;;
66972;SDS011;53902;51.466;-2.586;2023-04-06T09:38:09;3.37;;;1.10;;
66972;SDS011;53902;51.466;-2.586;2023-04-06T09:40:36;2.83;;;0.90;;
66972;SDS011;53902;51.466;-2.586;2023-04-06T09:43:01;8.65;;;1.77;;
66972;SDS011;53902;51.466;-2.586;2023-04-06T09:45:29;8.38;;;1.35;;
66972;SDS011;53902;51.466;-2.586;2023-04-06T09:47:55;10.93;;;1.67;;
66972;SDS011;53902;51.466;-2.586;2023-04-06T09:50:21;7.18;;;1.38;;
66972;SDS011;53902;51.466;-2.586;2023-04-06T09:52:48;6.80;;;1.58;;
66972;SDS011;53902;51.466;-2.586;2023-04-06T09:55:17;5.88;;;1.10;;
66972;SDS011;53902;51.466;-2.586;2023-04-06T09:57:58;6.07;;;1.20;;
66972;SDS011;53902;51.466;-2.586;2023-04-06T10:00:27;9.60;;;1.27;;
66972;SDS011;53902;51.466;-2.586;2023-04-06T10:05:42;6.82;;;1.67;;
66972;SDS011;53902;51.466;-2.586;2023-04-06T10:08:11;5.03;;;1.40;;
66972;SDS011;53902;51.466;-2.586;2023-04-06T10:10:37;12.63;;;1.50;;
66972;SDS011;53902;51.466;-2.586;2023-04-06T10:13:06;5.13;;;1.40;;
66972;SDS011;53902;51.466;-2.586;2023-04-06T10:15:32;6.05;;;1.45;;
66972;SDS011;53902;51.466;-2.586;2023-04-06T10:17:59;5.37;;;1.70;;
66972;SDS011;53902;51.466;-2.586;2023-04-06T10:23:32;7.75;;;1.50;;
66972;SDS011;53902;51.466;-2.586;2023-04-06T10:26:00;7.97;;;1.73;;
66972;SDS011;53902;51.466;-2.586;2023-04-06T10:28:30;8.40;;;1.70;;
66972;SDS011;53902;51.466;-2.586;2023-04-06T10:31:00;8.02;;;2.10;;
66972;SDS011;53902;51.466;-2.586;2023-04-06T10:33:36;8.93;;;2.22;;
66972;SDS011;53902;51.466;-2.586;2023-04-06T10:36:12;14.57;;;2.50;;
66972;SDS011;53902;51.466;-2.586;2023-04-06T10:38:46;9.75;;;2.63;;
66972;SDS011;53902;51.466;-2.586;2023-04-06T10:41:18;9.93;;;3.00;;
66972;SDS011;53902;51.466;-2.586;2023-04-06T10:43:54;9.70;;;2.50;;
66972;SDS011;53902;51.466;-2.586;2023-04-06T10:46:32;20.77;;;3.53;;
66972;SDS011;53902;51.466;-2.586;2023-04-06T10:49:11;12.63;;;2.85;;
66972;SDS011;53902;51.466;-2.586;2023-04-06T10:51:59;12.98;;;2.92;;
66972;SDS011;53902;51.466;-2.586;2023-04-06T10:55:08;10.02;;;2.05;;
66972;SDS011;53902;51.466;-2.586;2023-04-06T11:00:15;13.40;;;2.50;;
66972;SDS011;53902;51.466;-2.586;2023-04-06T11:02:58;12.65;;;2.65;;
66972;SDS011;53902;51.466;-2.586;2023-04-06T11:05:25;7.43;;;1.83;;
66972;SDS011;53902;51.466;-2.586;2023-04-06T11:07:55;11.00;;;2.05;;
66972;SDS011;53902;51.466;-2.586;2023-04-06T11:10:22;8.73;;;1.70;;
66972;SDS011;53902;51.466;-2.586;2023-04-06T11:12:54;11.45;;;1.95;;
66972;SDS011;53902;51.466;-2.586;2023-04-06T11:15:20;9.10;;;1.73;;
66972;SDS011;53902;51.466;-2.586;2023-04-06T11:17:46;6.35;;;1.73;;
66972;SDS011;53902;51.466;-2.586;2023-04-06T11:20:22;10.18;;;1.38;;
66972;SDS011;53902;51.466;-2.586;2023-04-06T11:22:48;5.38;;;0.90;;
66972;SDS011;53902;51.466;-2.586;2023-04-06T11:25:14;1.38;;;0.75;;
66972;SDS011;53902;51.466;-2.586;2023-04-06T11:27:41;3.88;;;0.90;;
66972;SDS011;53902;51.466;-2.586;2023-04-06T11:30:09;5.20;;;0.90;;
66972;SDS011;53902;51.466;-2.586;2023-04-06T11:32:40;5.65;;;1.08;;
66972;SDS011;53902;51.466;-2.586;2023-04-06T11:35:21;9.27;;;1.80;;
66972;SDS011;53902;51.466;-2.586;2023-04-06T11:37:50;8.50;;;1.52;;
66972;SDS011;53902;51.466;-2.586;2023-04-06T11:40:20;9.00;;;1.35;;
66972;SDS011;53902;51.466;-2.586;2023-04-06T11:42:53;8.77;;;1.35;;
66972;SDS011;53902;51.466;-2.586;2023-04-06T11:45:28;7.93;;;1.58;;
66972;SDS011;53902;51.466;-2.586;2023-04-06T11:48:18;6.60;;;1.25;;
66972;SDS011;53902;51.466;-2.586;2023-04-06T11:50:47;6.13;;;1.30;;
66972;SDS011;53902;51.466;-2.586;2023-04-06T11:53:32;4.00;;;1.10;;
66972;SDS011;53902;51.466;-2.586;2023-04-06T11:56:06;3.70;;;0.90;;
66972;SDS011;53902;51.466;-2.586;2023-04-06T11:58:33;7.35;;;1.20;;
66972;SDS011;53902;51.466;-2.586;2023-04-06T12:01:03;6.20;;;1.05;;
66972;SDS011;53902;51.466;-2.586;2023-04-06T12:03:35;5.57;;;0.90;;
66972;SDS011;53902;51.466;-2.586;2023-04-06T12:06:02;3.78;;;0.80;;
66972;SDS011;53902;51.466;-2.586;2023-04-06T12:08:33;8.40;;;1.60;;
66972;SDS011;53902;51.466;-2.586;2023-04-06T12:11:00;5.75;;;1.17;;
66972;SDS011;53902;51.466;-2.586;2023-04-06T12:13:38;4.35;;;0.85;;
66972;SDS011;53902;51.466;-2.586;2023-04-06T12:16:10;5.20;;;0.90;;
66972;SDS011;53902;51.466;-2.586;2023-04-06T12:18:48;4.68;;;0.75;;
66972;SDS011;53902;51.466;-2.586;2023-04-06T12:21:17;1.85;;;0.90;;
66972;SDS011;53902;51.466;-2.586;2023-04-06T12:23:43;4.55;;;0.85;;
66972;SDS011;53902;51.466;-2.586;2023-04-06T12:28:37;4.03;;;0.90;;
66972;SDS011;53902;51.466;-2.586;2023-04-06T12:31:03;6.72;;;1.10;;
66972;SDS011;53902;51.466;-2.586;2023-04-06T12:33:29;5.35;;;1.13;;
66972;SDS011;53902;51.466;-2.586;2023-04-06T12:35:54;6.68;;;1.42;;
66972;SDS011;53902;51.466;-2.586;2023-04-06T12:38:19;7.30;;;1.42;;
66972;SDS011;53902;51.466;-2.586;2023-04-06T12:40:46;7.65;;;1.35;;
66972;SDS011;53902;51.466;-2.586;2023-04-06T12:43:11;9.50;;;0.90;;
66972;SDS011;53902;51.466;-2.586;2023-04-06T12:45:38;1.75;;;0.40;;
66972;SDS011;53902;51.466;-2.586;2023-04-06T12:48:05;1.27;;;0.73;;
66972;SDS011;53902;51.466;-2.586;2023-04-06T12:50:31;2.25;;;0.55;;
66972;SDS011;53902;51.466;-2.586;2023-04-06T12:52:56;1.80;;;0.50;;
66972;SDS011;53902;51.466;-2.586;2023-04-06T12:55:22;1.85;;;0.50;;
66972;SDS011;53902;51.466;-2.586;2023-04-06T12:57:47;1.45;;;0.50;;
66972;SDS011;53902;51.466;-2.586;2023-04-06T13:00:13;0.85;;;0.40;;
66972;SDS011;53902;51.466;-2.586;2023-04-06T13:02:39;0.88;;;0.43;;
66972;SDS011;53902;51.466;-2.586;2023-04-06T13:05:05;0.52;;;0.43;;
66972;SDS011;53902;51.466;-2.586;2023-04-06T13:07:31;1.52;;;0.38;;
66972;SDS011;53902;51.466;-2.586;2023-04-06T13:09:56;0.40;;;0.30;;
66972;SDS011;53902;51.466;-2.586;2023-04-06T13:12:22;1.42;;;0.40;;
66972;SDS011;53902;51.466;-2.586;2023-04-06T13:14:47;1.90;;;0.50;;
66972;SDS011;53902;51.466;-2.586;2023-04-06T13:17:16;0.47;;;0.40;;
66972;SDS011;53902;51.466;-2.586;2023-04-06T13:19:42;1.75;;;0.55;;
66972;SDS011;53902;51.466;-2.586;2023-04-06T13:22:08;2.15;;;0.70;;
66972;SDS011;53902;51.466;-2.586;2023-04-06T13:24:33;0.90;;;0.60;;
66972;SDS011;53902;51.466;-2.586;2023-04-06T13:26:59;1.95;;;0.30;;
66972;SDS011;53902;51.466;-2.586;2023-04-06T13:29:25;2.47;;;0.38;;
66972;SDS011;53902;51.466;-2.586;2023-04-06T13:31:51;2.65;;;0.63;;
66972;SDS011;53902;51.466;-2.586;2023-04-06T13:34:17;3.30;;;0.60;;
66972;SDS011;53902;51.466;-2.586;2023-04-06T13:36:42;3.58;;;0.70;;
66972;SDS011;53902;51.466;-2.586;2023-04-06T13:39:08;3.42;;;0.80;;
66972;SDS011;53902;51.466;-2.586;2023-04-06T13:41:33;1.95;;;0.60;;
66972;SDS011;53902;51.466;-2.586;2023-04-06T13:43:59;3.38;;;0.60;;
66972;SDS011;53902;51.466;-2.586;2023-04-06T13:46:25;3.00;;;0.70;;
66972;SDS011;53902;51.466;-2.586;2023-04-06T13:48:52;2.85;;;0.70;;
66972;SDS011;53902;51.466;-2.586;2023-04-06T13:51:17;3.35;;;0.80;;
66972;SDS011;53902;51.466;-2.586;2023-04-06T13:53:43;5.00;;;0.70;;
66972;SDS011;53902;51.466;-2.586;2023-04-06T13:56:08;4.18;;;0.75;;
66972;SDS011;53902;51.466;-2.586;2023-04-06T13:58:34;3.95;;;0.93;;
66972;SDS011;53902;51.466;-2.586;2023-04-06T14:01:01;4.25;;;0.70;;
66972;SDS011;53902;51.466;-2.586;2023-04-06T14:03:31;2.53;;;1.00;;
66972;SDS011;53902;51.466;-2.586;2023-04-06T14:05:56;2.10;;;0.90;;
66972;SDS011;53902;51.466;-2.586;2023-04-06T14:08:22;4.65;;;0.95;;
66972;SDS011;53902;51.466;-2.586;2023-04-06T14:10:47;7.10;;;0.90;;
66972;SDS011;53902;51.466;-2.586;2023-04-06T14:13:13;0.68;;;0.60;;
66972;SDS011;53902;51.466;-2.586;2023-04-06T14:15:38;3.38;;;1.10;;
66972;SDS011;53902;51.466;-2.586;2023-04-06T14:18:04;4.95;;;1.00;;
66972;SDS011;53902;51.466;-2.586;2023-04-06T14:20:32;3.67;;;1.10;;
66972;SDS011;53902;51.466;-2.586;2023-04-06T14:22:59;8.80;;;1.15;;
66972;SDS011;53902;51.466;-2.586;2023-04-06T14:25:28;4.13;;;1.30;;
66972;SDS011;53902;51.466;-2.586;2023-04-06T14:27:56;7.05;;;1.30;;
66972;SDS011;53902;51.466;-2.586;2023-04-06T14:30:21;3.60;;;1.20;;
66972;SDS011;53902;51.466;-2.586;2023-04-06T14:32:47;7.45;;;1.33;;
66972;SDS011;53902;51.466;-2.586;2023-04-06T14:35:13;8.00;;;1.33;;
66972;SDS011;53902;51.466;-2.586;2023-04-06T14:37:38;7.15;;;1.23;;
66972;SDS011;53902;51.466;-2.586;2023-04-06T14:40:04;9.02;;;1.45;;
66972;SDS011;53902;51.466;-2.586;2023-04-06T14:42:30;5.17;;;1.50;;
66972;SDS011;53902;51.466;-2.586;2023-04-06T14:44:55;7.93;;;1.20;;
66972;SDS011;53902;51.466;-2.586;2023-04-06T14:47:21;7.32;;;1.33;;
66972;SDS011;53902;51.466;-2.586;2023-04-06T14:49:47;5.28;;;1.10;;
66972;SDS011;53902;51.466;-2.586;2023-04-06T14:52:15;3.60;;;1.00;;
66972;SDS011;53902;51.466;-2.586;2023-04-06T14:54:40;7.68;;;1.55;;
66972;SDS011;53902;51.466;-2.586;2023-04-06T14:57:06;6.68;;;1.20;;
66972;SDS011;53902;51.466;-2.586;2023-04-06T14:59:31;6.60;;;1.30;;
66972;SDS011;53902;51.466;-2.586;2023-04-06T15:01:58;6.30;;;1.20;;
66972;SDS011;53902;51.466;-2.586;2023-04-06T15:04:25;5.28;;;0.90;;
66972;SDS011;53902;51.466;-2.586;2023-04-06T15:06:50;3.10;;;0.95;;
66972;SDS011;53902;51.466;-2.586;2023-04-06T15:09:16;1.67;;;0.73;;
66972;SDS011;53902;51.466;-2.586;2023-04-06T15:11:41;5.22;;;0.98;;
66972;SDS011;53902;51.466;-2.586;2023-04-06T15:14:07;3.92;;;1.00;;
66972;SDS011;53902;51.466;-2.586;2023-04-06T15:16:32;3.65;;;0.88;;
66972;SDS011;53902;51.466;-2.586;2023-04-06T15:18:58;4.18;;;0.95;;
66972;SDS011;53902;51.466;-2.586;2023-04-06T15:21:24;3.28;;;1.02;;
66972;SDS011;53902;51.466;-2.586;2023-04-06T15:23:50;2.25;;;0.70;;
66972;SDS011;53902;51.466;-2.586;2023-04-06T15:26:16;3.25;;;0.77;;
66972;SDS011;53902;51.466;-2.586;2023-04-06T15:28:41;3.47;;;0.70;;
66972;SDS011;53902;51.466;-2.586;2023-04-06T15:31:16;4.68;;;0.75;;
66972;SDS011;53902;51.466;-2.586;2023-04-06T15:33:42;2.08;;;0.60;;
66972;SDS011;53902;51.466;-2.586;2023-04-06T15:36:11;1.33;;;0.40;;
66972;SDS011;53902;51.466;-2.586;2023-04-06T15:38:49;0.65;;;0.40;;
66972;SDS011;53902;51.466;-2.586;2023-04-06T15:41:15;0.57;;;0.30;;
66972;SDS011;53902;51.466;-2.586;2023-04-06T15:43:41;1.17;;;0.52;;
66972;SDS011;53902;51.466;-2.586;2023-04-06T15:46:07;2.90;;;0.73;;
66972;SDS011;53902;51.466;-2.586;2023-04-06T15:48:32;5.15;;;1.02;;
66972;SDS011;53902;51.466;-2.586;2023-04-06T15:50:58;5.53;;;0.90;;
66972;SDS011;53902;51.466;-2.586;2023-04-06T15:53:24;2.30;;;0.70;;
66972;SDS011;53902;51.466;-2.586;2023-04-06T15:55:50;2.75;;;0.90;;
66972;SDS011;53902;51.466;-2.586;2023-04-06T15:58:15;3.35;;;0.90;;
66972;SDS011;53902;51.466;-2.586;2023-04-06T16:00:41;5.10;;;0.90;;
66972;SDS011;53902;51.466;-2.586;2023-04-06T16:03:06;3.40;;;0.95;;
66972;SDS011;53902;51.466;-2.586;2023-04-06T16:05:32;3.75;;;1.15;;
66972;SDS011;53902;51.466;-2.586;2023-04-06T16:07:57;2.17;;;0.80;;
66972;SDS011;53902;51.466;-2.586;2023-04-06T16:10:23;6.70;;;0.90;;
66972;SDS011;53902;51.466;-2.586;2023-04-06T16:12:48;3.85;;;0.80;;
66972;SDS011;53902;51.466;-2.586;2023-04-06T16:15:14;11.30;;;3.15;;
66972;SDS011;53902;51.466;-2.586;2023-04-06T16:17:40;9.30;;;2.53;;
66972;SDS011;53902;51.466;-2.586;2023-04-06T16:20:07;7.75;;;2.42;;